sensor_id;sensor_type;location;lat;lon;timestamp;P1;durP1;ratioP1;P2;durP2;ratioP2
5608;SDS011;2826;51.354;9.588;2023-05-10T00:00:23;8.90;;;7.57;;
5608;SDS011;2826;51.354;9.588;2023-05-10T00:02:50;10.17;;;7.60;;
5608;SDS011;2826;51.354;9.588;2023-05-10T00:05:17;9.70;;;7.80;;
5608;SDS011;2826;51.354;9.588;2023-05-10T00:07:43;11.00;;;7.90;;
5608;SDS011;2826;51.354;9.588;2023-05-10T00:10:10;10.27;;;8.23;;
5608;SDS011;2826;51.354;9.588;2023-05-10T00:12:38;8.87;;;7.50;;
5608;SDS011;2826;51.354;9.588;2023-05-10T00:15:05;9.07;;;7.60;;
5608;SDS011;2826;51.354;9.588;2023-05-10T00:17:33;13.50;;;8.50;;
5608;SDS011;2826;51.354;9.588;2023-05-10T00:20:00;9.07;;;7.67;;
5608;SDS011;2826;51.354;9.588;2023-05-10T00:22:26;9.80;;;7.90;;
5608;SDS011;2826;51.354;9.588;2023-05-10T00:24:53;12.63;;;8.47;;
5608;SDS011;2826;51.354;9.588;2023-05-10T00:27:19;9.17;;;8.20;;
5608;SDS011;2826;51.354;9.588;2023-05-10T00:29:47;11.80;;;8.53;;
5608;SDS011;2826;51.354;9.588;2023-05-10T00:32:14;10.00;;;7.20;;
5608;SDS011;2826;51.354;9.588;2023-05-10T00:34:41;12.07;;;7.90;;
5608;SDS011;2826;51.354;9.588;2023-05-10T00:37:08;8.83;;;7.47;;
5608;SDS011;2826;51.354;9.588;2023-05-10T00:39:35;9.30;;;8.00;;
5608;SDS011;2826;51.354;9.588;2023-05-10T00:42:01;11.83;;;7.87;;
5608;SDS011;2826;51.354;9.588;2023-05-10T00:44:30;10.13;;;7.40;;
5608;SDS011;2826;51.354;9.588;2023-05-10T00:46:58;9.87;;;7.87;;
5608;SDS011;2826;51.354;9.588;2023-05-10T00:49:25;8.73;;;7.07;;
5608;SDS011;2826;51.354;9.588;2023-05-10T00:51:52;9.80;;;7.80;;
5608;SDS011;2826;51.354;9.588;2023-05-10T00:54:19;8.33;;;6.80;;
5608;SDS011;2826;51.354;9.588;2023-05-10T00:56:46;8.40;;;6.20;;
5608;SDS011;2826;51.354;9.588;2023-05-10T00:59:14;10.33;;;6.27;;
5608;SDS011;2826;51.354;9.588;2023-05-10T01:01:41;6.30;;;5.60;;
5608;SDS011;2826;51.354;9.588;2023-05-10T01:04:09;8.37;;;5.27;;
5608;SDS011;2826;51.354;9.588;2023-05-10T01:06:38;7.10;;;5.00;;
5608;SDS011;2826;51.354;9.588;2023-05-10T01:09:04;6.37;;;4.77;;
5608;SDS011;2826;51.354;9.588;2023-05-10T01:11:31;4.50;;;4.10;;
5608;SDS011;2826;51.354;9.588;2023-05-10T01:13:58;4.50;;;3.97;;
5608;SDS011;2826;51.354;9.588;2023-05-10T01:16:25;3.70;;;3.40;;
5608;SDS011;2826;51.354;9.588;2023-05-10T01:18:54;2.97;;;2.67;;
5608;SDS011;2826;51.354;9.588;2023-05-10T01:21:23;3.63;;;3.27;;
5608;SDS011;2826;51.354;9.588;2023-05-10T01:24:09;8.70;;;3.63;;
5608;SDS011;2826;51.354;9.588;2023-05-10T01:26:58;5.60;;;3.40;;
5608;SDS011;2826;51.354;9.588;2023-05-10T01:32:38;6.10;;;2.77;;
5608;SDS011;2826;51.354;9.588;2023-05-10T01:35:10;2.60;;;2.40;;
5608;SDS011;2826;51.354;9.588;2023-05-10T01:37:45;2.50;;;2.30;;
5608;SDS011;2826;51.354;9.588;2023-05-10T01:40:17;2.97;;;2.77;;
5608;SDS011;2826;51.354;9.588;2023-05-10T01:42:50;2.70;;;2.50;;
5608;SDS011;2826;51.354;9.588;2023-05-10T01:45:20;3.60;;;2.70;;
5608;SDS011;2826;51.354;9.588;2023-05-10T01:47:57;2.93;;;2.47;;
5608;SDS011;2826;51.354;9.588;2023-05-10T01:50:29;2.60;;;2.40;;
5608;SDS011;2826;51.354;9.588;2023-05-10T01:52:57;3.03;;;2.83;;
5608;SDS011;2826;51.354;9.588;2023-05-10T01:55:27;2.53;;;2.33;;
5608;SDS011;2826;51.354;9.588;2023-05-10T01:57:58;2.50;;;2.30;;
5608;SDS011;2826;51.354;9.588;2023-05-10T02:00:29;2.73;;;2.53;;
5608;SDS011;2826;51.354;9.588;2023-05-10T02:02:58;3.67;;;2.63;;
5608;SDS011;2826;51.354;9.588;2023-05-10T02:05:27;2.70;;;2.30;;
5608;SDS011;2826;51.354;9.588;2023-05-10T02:07:57;2.93;;;2.53;;
5608;SDS011;2826;51.354;9.588;2023-05-10T02:10:26;2.53;;;2.33;;
5608;SDS011;2826;51.354;9.588;2023-05-10T02:12:53;2.87;;;2.67;;
5608;SDS011;2826;51.354;9.588;2023-05-10T02:15:22;2.53;;;2.33;;
5608;SDS011;2826;51.354;9.588;2023-05-10T02:17:49;3.47;;;2.90;;
5608;SDS011;2826;51.354;9.588;2023-05-10T02:20:20;2.63;;;2.43;;
5608;SDS011;2826;51.354;9.588;2023-05-10T02:22:48;2.70;;;2.50;;
5608;SDS011;2826;51.354;9.588;2023-05-10T02:25:16;2.63;;;2.43;;
5608;SDS011;2826;51.354;9.588;2023-05-10T02:27:45;2.90;;;2.70;;
5608;SDS011;2826;51.354;9.588;2023-05-10T02:30:13;3.33;;;2.50;;
5608;SDS011;2826;51.354;9.588;2023-05-10T02:32:41;3.30;;;2.60;;
5608;SDS011;2826;51.354;9.588;2023-05-10T02:35:08;2.60;;;2.33;;
5608;SDS011;2826;51.354;9.588;2023-05-10T02:37:37;2.37;;;2.27;;
5608;SDS011;2826;51.354;9.588;2023-05-10T02:40:06;2.70;;;2.50;;
5608;SDS011;2826;51.354;9.588;2023-05-10T02:42:35;2.63;;;2.43;;
5608;SDS011;2826;51.354;9.588;2023-05-10T02:45:05;2.43;;;2.20;;
5608;SDS011;2826;51.354;9.588;2023-05-10T02:47:35;3.70;;;2.40;;
5608;SDS011;2826;51.354;9.588;2023-05-10T02:50:01;4.47;;;2.70;;
5608;SDS011;2826;51.354;9.588;2023-05-10T02:52:35;5.67;;;2.90;;
5608;SDS011;2826;51.354;9.588;2023-05-10T02:55:09;3.13;;;2.83;;
5608;SDS011;2826;51.354;9.588;2023-05-10T02:57:38;2.80;;;2.60;;
5608;SDS011;2826;51.354;9.588;2023-05-10T03:00:09;3.77;;;2.50;;
5608;SDS011;2826;51.354;9.588;2023-05-10T03:02:37;4.80;;;2.50;;
5608;SDS011;2826;51.354;9.588;2023-05-10T03:05:04;5.63;;;3.17;;
5608;SDS011;2826;51.354;9.588;2023-05-10T03:07:31;3.17;;;2.73;;
5608;SDS011;2826;51.354;9.588;2023-05-10T03:10:00;3.60;;;2.50;;
5608;SDS011;2826;51.354;9.588;2023-05-10T03:12:31;4.10;;;2.50;;
5608;SDS011;2826;51.354;9.588;2023-05-10T03:15:13;3.70;;;2.30;;
5608;SDS011;2826;51.354;9.588;2023-05-10T03:17:45;2.40;;;2.20;;
5608;SDS011;2826;51.354;9.588;2023-05-10T03:20:20;2.47;;;2.23;;
5608;SDS011;2826;51.354;9.588;2023-05-10T03:22:51;2.40;;;2.20;;
5608;SDS011;2826;51.354;9.588;2023-05-10T03:25:24;2.30;;;2.00;;
5608;SDS011;2826;51.354;9.588;2023-05-10T03:27:52;4.67;;;2.80;;
5608;SDS011;2826;51.354;9.588;2023-05-10T03:30:21;7.37;;;2.90;;
5608;SDS011;2826;51.354;9.588;2023-05-10T03:32:48;2.70;;;2.30;;
5608;SDS011;2826;51.354;9.588;2023-05-10T03:35:16;4.83;;;2.40;;
5608;SDS011;2826;51.354;9.588;2023-05-10T03:37:43;2.10;;;2.00;;
5608;SDS011;2826;51.354;9.588;2023-05-10T03:40:10;3.47;;;1.90;;
5608;SDS011;2826;51.354;9.588;2023-05-10T03:42:41;4.20;;;1.87;;
5608;SDS011;2826;51.354;9.588;2023-05-10T03:45:08;2.13;;;1.93;;
5608;SDS011;2826;51.354;9.588;2023-05-10T03:47:35;2.63;;;2.37;;
5608;SDS011;2826;51.354;9.588;2023-05-10T03:50:02;2.23;;;2.07;;
5608;SDS011;2826;51.354;9.588;2023-05-10T03:52:29;3.03;;;2.17;;
5608;SDS011;2826;51.354;9.588;2023-05-10T03:54:57;3.07;;;2.30;;
5608;SDS011;2826;51.354;9.588;2023-05-10T03:57:23;3.50;;;2.67;;
5608;SDS011;2826;51.354;9.588;2023-05-10T03:59:52;2.30;;;2.10;;
5608;SDS011;2826;51.354;9.588;2023-05-10T04:02:18;2.60;;;2.40;;
5608;SDS011;2826;51.354;9.588;2023-05-10T04:04:44;3.93;;;2.20;;
5608;SDS011;2826;51.354;9.588;2023-05-10T04:07:11;2.50;;;2.30;;
5608;SDS011;2826;51.354;9.588;2023-05-10T04:09:38;6.10;;;2.10;;
5608;SDS011;2826;51.354;9.588;2023-05-10T04:12:05;2.30;;;2.10;;
5608;SDS011;2826;51.354;9.588;2023-05-10T04:14:32;2.00;;;1.90;;
5608;SDS011;2826;51.354;9.588;2023-05-10T04:17:00;2.43;;;2.23;;
5608;SDS011;2826;51.354;9.588;2023-05-10T04:19:28;2.00;;;1.87;;
5608;SDS011;2826;51.354;9.588;2023-05-10T04:21:55;6.20;;;2.10;;
5608;SDS011;2826;51.354;9.588;2023-05-10T04:24:21;2.53;;;2.33;;
5608;SDS011;2826;51.354;9.588;2023-05-10T04:26:48;2.03;;;1.73;;
5608;SDS011;2826;51.354;9.588;2023-05-10T04:29:14;2.30;;;2.07;;
5608;SDS011;2826;51.354;9.588;2023-05-10T04:31:41;1.90;;;1.70;;
5608;SDS011;2826;51.354;9.588;2023-05-10T04:34:09;2.30;;;1.77;;
5608;SDS011;2826;51.354;9.588;2023-05-10T04:36:35;1.83;;;1.73;;
5608;SDS011;2826;51.354;9.588;2023-05-10T04:39:02;1.90;;;1.80;;
5608;SDS011;2826;51.354;9.588;2023-05-10T04:41:29;1.80;;;1.70;;
5608;SDS011;2826;51.354;9.588;2023-05-10T04:43:56;3.00;;;1.83;;
5608;SDS011;2826;51.354;9.588;2023-05-10T04:46:41;1.73;;;1.63;;
5608;SDS011;2826;51.354;9.588;2023-05-10T04:49:10;1.80;;;1.70;;
5608;SDS011;2826;51.354;9.588;2023-05-10T04:51:36;1.87;;;1.73;;
5608;SDS011;2826;51.354;9.588;2023-05-10T04:54:03;1.97;;;1.80;;
5608;SDS011;2826;51.354;9.588;2023-05-10T04:56:29;1.90;;;1.80;;
5608;SDS011;2826;51.354;9.588;2023-05-10T04:58:56;2.63;;;1.80;;
5608;SDS011;2826;51.354;9.588;2023-05-10T05:01:22;2.00;;;1.80;;
5608;SDS011;2826;51.354;9.588;2023-05-10T05:03:49;2.07;;;1.90;;
5608;SDS011;2826;51.354;9.588;2023-05-10T05:06:18;1.90;;;1.80;;
5608;SDS011;2826;51.354;9.588;2023-05-10T05:08:46;3.33;;;2.03;;
5608;SDS011;2826;51.354;9.588;2023-05-10T05:11:14;1.80;;;1.70;;
5608;SDS011;2826;51.354;9.588;2023-05-10T05:13:40;3.57;;;1.63;;
5608;SDS011;2826;51.354;9.588;2023-05-10T05:16:07;2.00;;;1.90;;
5608;SDS011;2826;51.354;9.588;2023-05-10T05:18:33;4.40;;;1.60;;
5608;SDS011;2826;51.354;9.588;2023-05-10T05:21:00;2.30;;;1.70;;
5608;SDS011;2826;51.354;9.588;2023-05-10T05:23:28;1.40;;;1.30;;
5608;SDS011;2826;51.354;9.588;2023-05-10T05:25:55;1.33;;;1.23;;
5608;SDS011;2826;51.354;9.588;2023-05-10T05:28:22;1.50;;;1.40;;
5608;SDS011;2826;51.354;9.588;2023-05-10T05:30:48;1.70;;;1.40;;
5608;SDS011;2826;51.354;9.588;2023-05-10T05:33:15;1.50;;;1.40;;
5608;SDS011;2826;51.354;9.588;2023-05-10T05:35:41;1.57;;;1.30;;
5608;SDS011;2826;51.354;9.588;2023-05-10T05:38:12;1.40;;;1.30;;
5608;SDS011;2826;51.354;9.588;2023-05-10T05:40:40;4.67;;;1.30;;
5608;SDS011;2826;51.354;9.588;2023-05-10T05:43:07;1.43;;;1.33;;
5608;SDS011;2826;51.354;9.588;2023-05-10T05:45:34;1.90;;;1.10;;
5608;SDS011;2826;51.354;9.588;2023-05-10T05:48:00;1.93;;;1.10;;
5608;SDS011;2826;51.354;9.588;2023-05-10T05:50:27;1.50;;;1.40;;
5608;SDS011;2826;51.354;9.588;2023-05-10T05:52:54;1.50;;;1.40;;
5608;SDS011;2826;51.354;9.588;2023-05-10T05:55:21;1.40;;;1.30;;
5608;SDS011;2826;51.354;9.588;2023-05-10T05:57:50;2.00;;;1.80;;
5608;SDS011;2826;51.354;9.588;2023-05-10T06:00:17;1.77;;;1.20;;
5608;SDS011;2826;51.354;9.588;2023-05-10T06:02:44;1.30;;;1.20;;
5608;SDS011;2826;51.354;9.588;2023-05-10T06:05:11;1.50;;;1.40;;
5608;SDS011;2826;51.354;9.588;2023-05-10T06:07:39;1.63;;;1.30;;
5608;SDS011;2826;51.354;9.588;2023-05-10T06:10:07;1.50;;;1.40;;
5608;SDS011;2826;51.354;9.588;2023-05-10T06:12:34;2.07;;;1.40;;
5608;SDS011;2826;51.354;9.588;2023-05-10T06:15:02;1.60;;;1.50;;
5608;SDS011;2826;51.354;9.588;2023-05-10T06:17:29;1.87;;;1.77;;
5608;SDS011;2826;51.354;9.588;2023-05-10T06:19:55;1.80;;;1.70;;
5608;SDS011;2826;51.354;9.588;2023-05-10T06:22:22;1.60;;;1.50;;
5608;SDS011;2826;51.354;9.588;2023-05-10T06:24:48;2.63;;;1.50;;
5608;SDS011;2826;51.354;9.588;2023-05-10T06:27:15;1.50;;;1.40;;
5608;SDS011;2826;51.354;9.588;2023-05-10T06:29:41;2.10;;;1.40;;
5608;SDS011;2826;51.354;9.588;2023-05-10T06:32:09;1.37;;;1.27;;
5608;SDS011;2826;51.354;9.588;2023-05-10T06:34:36;1.20;;;1.10;;
5608;SDS011;2826;51.354;9.588;2023-05-10T06:37:02;2.27;;;1.30;;
5608;SDS011;2826;51.354;9.588;2023-05-10T06:39:29;1.30;;;1.10;;
5608;SDS011;2826;51.354;9.588;2023-05-10T06:41:55;1.80;;;1.70;;
5608;SDS011;2826;51.354;9.588;2023-05-10T06:44:22;3.50;;;1.70;;
5608;SDS011;2826;51.354;9.588;2023-05-10T06:46:48;2.20;;;2.00;;
5608;SDS011;2826;51.354;9.588;2023-05-10T06:49:17;1.90;;;1.80;;
5608;SDS011;2826;51.354;9.588;2023-05-10T06:51:44;1.43;;;1.30;;
5608;SDS011;2826;51.354;9.588;2023-05-10T06:54:10;0.90;;;0.90;;
5608;SDS011;2826;51.354;9.588;2023-05-10T06:56:37;1.00;;;0.90;;
5608;SDS011;2826;51.354;9.588;2023-05-10T06:59:03;1.10;;;1.00;;
5608;SDS011;2826;51.354;9.588;2023-05-10T07:01:30;1.57;;;1.20;;
5608;SDS011;2826;51.354;9.588;2023-05-10T07:03:57;4.43;;;1.00;;
5608;SDS011;2826;51.354;9.588;2023-05-10T07:06:25;1.30;;;0.90;;
5608;SDS011;2826;51.354;9.588;2023-05-10T07:08:52;1.60;;;1.10;;
5608;SDS011;2826;51.354;9.588;2023-05-10T07:11:18;1.60;;;1.50;;
5608;SDS011;2826;51.354;9.588;2023-05-10T07:13:45;1.80;;;1.70;;
5608;SDS011;2826;51.354;9.588;2023-05-10T07:16:11;2.33;;;2.00;;
5608;SDS011;2826;51.354;9.588;2023-05-10T07:18:38;4.13;;;2.43;;
5608;SDS011;2826;51.354;9.588;2023-05-10T07:21:05;2.10;;;1.80;;
5608;SDS011;2826;51.354;9.588;2023-05-10T07:23:33;1.90;;;1.80;;
5608;SDS011;2826;51.354;9.588;2023-05-10T07:26:00;1.60;;;1.20;;
5608;SDS011;2826;51.354;9.588;2023-05-10T07:28:27;1.47;;;1.20;;
5608;SDS011;2826;51.354;9.588;2023-05-10T07:30:53;1.37;;;1.20;;
5608;SDS011;2826;51.354;9.588;2023-05-10T07:33:21;1.73;;;1.10;;
5608;SDS011;2826;51.354;9.588;2023-05-10T07:35:47;1.07;;;1.00;;
5608;SDS011;2826;51.354;9.588;2023-05-10T07:38:14;1.03;;;0.93;;
5608;SDS011;2826;51.354;9.588;2023-05-10T07:40:42;1.67;;;1.13;;
5608;SDS011;2826;51.354;9.588;2023-05-10T07:43:09;5.40;;;1.00;;
5608;SDS011;2826;51.354;9.588;2023-05-10T07:45:35;1.30;;;1.20;;
5608;SDS011;2826;51.354;9.588;2023-05-10T07:48:02;3.23;;;2.70;;
5608;SDS011;2826;51.354;9.588;2023-05-10T07:50:29;1.30;;;1.20;;
5608;SDS011;2826;51.354;9.588;2023-05-10T07:52:55;2.33;;;1.97;;
5608;SDS011;2826;51.354;9.588;2023-05-10T07:55:22;7.23;;;1.17;;
5608;SDS011;2826;51.354;9.588;2023-05-10T07:57:50;2.50;;;1.00;;
5608;SDS011;2826;51.354;9.588;2023-05-10T08:00:17;1.27;;;0.97;;
5608;SDS011;2826;51.354;9.588;2023-05-10T08:02:45;1.33;;;1.00;;
5608;SDS011;2826;51.354;9.588;2023-05-10T08:05:12;4.00;;;1.10;;
5608;SDS011;2826;51.354;9.588;2023-05-10T08:07:38;1.77;;;1.30;;
5608;SDS011;2826;51.354;9.588;2023-05-10T08:10:06;1.10;;;1.00;;
5608;SDS011;2826;51.354;9.588;2023-05-10T08:12:33;4.07;;;1.20;;
5608;SDS011;2826;51.354;9.588;2023-05-10T08:15:01;1.50;;;1.10;;
5608;SDS011;2826;51.354;9.588;2023-05-10T08:17:28;4.23;;;1.30;;
5608;SDS011;2826;51.354;9.588;2023-05-10T08:19:55;1.70;;;1.10;;
5608;SDS011;2826;51.354;9.588;2023-05-10T08:22:21;5.60;;;1.00;;
5608;SDS011;2826;51.354;9.588;2023-05-10T08:24:48;1.30;;;0.97;;
5608;SDS011;2826;51.354;9.588;2023-05-10T08:27:15;3.43;;;1.07;;
5608;SDS011;2826;51.354;9.588;2023-05-10T08:29:41;1.67;;;1.00;;
5608;SDS011;2826;51.354;9.588;2023-05-10T08:32:09;1.00;;;0.80;;
5608;SDS011;2826;51.354;9.588;2023-05-10T08:34:36;3.53;;;1.10;;
5608;SDS011;2826;51.354;9.588;2023-05-10T08:37:03;0.90;;;0.90;;
5608;SDS011;2826;51.354;9.588;2023-05-10T08:39:33;1.20;;;1.10;;
5608;SDS011;2826;51.354;9.588;2023-05-10T08:42:01;2.93;;;1.07;;
5608;SDS011;2826;51.354;9.588;2023-05-10T08:44:30;3.53;;;1.10;;
5608;SDS011;2826;51.354;9.588;2023-05-10T08:46:58;3.67;;;1.20;;
5608;SDS011;2826;51.354;9.588;2023-05-10T08:49:29;1.50;;;1.00;;
5608;SDS011;2826;51.354;9.588;2023-05-10T08:51:58;1.10;;;0.90;;
5608;SDS011;2826;51.354;9.588;2023-05-10T08:54:28;2.67;;;1.03;;
5608;SDS011;2826;51.354;9.588;2023-05-10T08:56:56;3.73;;;1.40;;
5608;SDS011;2826;51.354;9.588;2023-05-10T08:59:23;1.90;;;1.30;;
5608;SDS011;2826;51.354;9.588;2023-05-10T09:01:49;2.90;;;1.10;;
5608;SDS011;2826;51.354;9.588;2023-05-10T09:04:19;1.10;;;1.00;;
5608;SDS011;2826;51.354;9.588;2023-05-10T09:06:47;1.50;;;1.10;;
5608;SDS011;2826;51.354;9.588;2023-05-10T09:09:14;3.97;;;1.40;;
5608;SDS011;2826;51.354;9.588;2023-05-10T09:11:41;2.97;;;1.23;;
5608;SDS011;2826;51.354;9.588;2023-05-10T09:14:08;1.57;;;1.20;;
5608;SDS011;2826;51.354;9.588;2023-05-10T09:16:35;1.63;;;1.20;;
5608;SDS011;2826;51.354;9.588;2023-05-10T09:19:02;1.37;;;1.27;;
5608;SDS011;2826;51.354;9.588;2023-05-10T09:21:28;1.80;;;1.50;;
5608;SDS011;2826;51.354;9.588;2023-05-10T09:23:57;2.57;;;1.03;;
5608;SDS011;2826;51.354;9.588;2023-05-10T09:26:29;3.73;;;1.30;;
5608;SDS011;2826;51.354;9.588;2023-05-10T09:28:56;1.90;;;1.50;;
5608;SDS011;2826;51.354;9.588;2023-05-10T09:31:24;2.60;;;1.70;;
5608;SDS011;2826;51.354;9.588;2023-05-10T09:34:09;1.83;;;1.67;;
5608;SDS011;2826;51.354;9.588;2023-05-10T09:36:36;3.77;;;1.30;;
5608;SDS011;2826;51.354;9.588;2023-05-10T09:39:04;2.90;;;1.40;;
5608;SDS011;2826;51.354;9.588;2023-05-10T09:41:30;3.93;;;1.77;;
5608;SDS011;2826;51.354;9.588;2023-05-10T09:43:58;2.17;;;1.97;;
5608;SDS011;2826;51.354;9.588;2023-05-10T09:46:25;1.50;;;1.40;;
5608;SDS011;2826;51.354;9.588;2023-05-10T09:48:52;2.60;;;1.70;;
5608;SDS011;2826;51.354;9.588;2023-05-10T09:51:19;2.00;;;1.77;;
5608;SDS011;2826;51.354;9.588;2023-05-10T09:53:46;2.53;;;1.80;;
5608;SDS011;2826;51.354;9.588;2023-05-10T09:56:19;3.73;;;1.83;;
5608;SDS011;2826;51.354;9.588;2023-05-10T09:59:02;1.93;;;1.77;;
5608;SDS011;2826;51.354;9.588;2023-05-10T10:01:28;1.70;;;1.60;;
5608;SDS011;2826;51.354;9.588;2023-05-10T10:03:55;1.73;;;1.63;;
5608;SDS011;2826;51.354;9.588;2023-05-10T10:06:23;5.00;;;2.00;;
5608;SDS011;2826;51.354;9.588;2023-05-10T10:08:51;13.40;;;2.50;;
5608;SDS011;2826;51.354;9.588;2023-05-10T10:11:19;3.03;;;2.30;;
5608;SDS011;2826;51.354;9.588;2023-05-10T10:13:46;2.53;;;2.30;;
5608;SDS011;2826;51.354;9.588;2023-05-10T10:16:12;4.90;;;2.60;;
5608;SDS011;2826;51.354;9.588;2023-05-10T10:18:39;4.20;;;2.80;;
5608;SDS011;2826;51.354;9.588;2023-05-10T10:21:07;4.67;;;2.70;;
5608;SDS011;2826;51.354;9.588;2023-05-10T10:23:34;5.10;;;2.70;;
5608;SDS011;2826;51.354;9.588;2023-05-10T10:26:01;3.43;;;2.63;;
5608;SDS011;2826;51.354;9.588;2023-05-10T10:28:32;2.93;;;2.60;;
5608;SDS011;2826;51.354;9.588;2023-05-10T10:31:12;3.30;;;2.67;;
5608;SDS011;2826;51.354;9.588;2023-05-10T10:33:51;4.07;;;3.10;;
5608;SDS011;2826;51.354;9.588;2023-05-10T10:36:25;3.43;;;3.13;;
5608;SDS011;2826;51.354;9.588;2023-05-10T10:38:57;3.13;;;2.73;;
5608;SDS011;2826;51.354;9.588;2023-05-10T10:41:32;4.57;;;3.20;;
5608;SDS011;2826;51.354;9.588;2023-05-10T10:47:01;4.60;;;2.40;;
5608;SDS011;2826;51.354;9.588;2023-05-10T10:49:31;4.07;;;3.30;;
5608;SDS011;2826;51.354;9.588;2023-05-10T10:52:14;3.80;;;3.40;;
5608;SDS011;2826;51.354;9.588;2023-05-10T10:54:45;3.67;;;3.20;;
5608;SDS011;2826;51.354;9.588;2023-05-10T10:57:17;4.40;;;3.40;;
5608;SDS011;2826;51.354;9.588;2023-05-10T10:59:47;5.53;;;3.53;;
5608;SDS011;2826;51.354;9.588;2023-05-10T11:02:32;4.77;;;3.80;;
5608;SDS011;2826;51.354;9.588;2023-05-10T11:04:59;4.50;;;3.60;;
5608;SDS011;2826;51.354;9.588;2023-05-10T11:07:26;7.43;;;4.40;;
5608;SDS011;2826;51.354;9.588;2023-05-10T11:09:53;4.43;;;3.50;;
5608;SDS011;2826;51.354;9.588;2023-05-10T11:12:20;4.80;;;4.07;;
5608;SDS011;2826;51.354;9.588;2023-05-10T11:14:50;7.43;;;4.83;;
5608;SDS011;2826;51.354;9.588;2023-05-10T11:17:23;5.77;;;4.07;;
5608;SDS011;2826;51.354;9.588;2023-05-10T11:20:09;4.60;;;4.03;;
5608;SDS011;2826;51.354;9.588;2023-05-10T11:22:49;6.23;;;4.60;;
5608;SDS011;2826;51.354;9.588;2023-05-10T11:25:17;5.47;;;4.40;;
5608;SDS011;2826;51.354;9.588;2023-05-10T11:27:43;5.60;;;4.93;;
5608;SDS011;2826;51.354;9.588;2023-05-10T11:30:12;6.17;;;4.40;;
5608;SDS011;2826;51.354;9.588;2023-05-10T11:32:40;8.87;;;5.23;;
5608;SDS011;2826;51.354;9.588;2023-05-10T11:35:07;9.80;;;6.37;;
5608;SDS011;2826;51.354;9.588;2023-05-10T11:37:34;7.00;;;4.57;;
5608;SDS011;2826;51.354;9.588;2023-05-10T11:40:01;4.40;;;3.83;;
5608;SDS011;2826;51.354;9.588;2023-05-10T11:42:28;5.33;;;4.60;;
5608;SDS011;2826;51.354;9.588;2023-05-10T11:44:55;6.80;;;4.57;;
5608;SDS011;2826;51.354;9.588;2023-05-10T11:47:23;7.83;;;4.57;;
5608;SDS011;2826;51.354;9.588;2023-05-10T11:49:50;5.87;;;3.77;;
5608;SDS011;2826;51.354;9.588;2023-05-10T11:52:18;5.23;;;3.77;;
5608;SDS011;2826;51.354;9.588;2023-05-10T11:54:46;4.67;;;3.30;;
5608;SDS011;2826;51.354;9.588;2023-05-10T11:57:17;3.50;;;3.20;;
5608;SDS011;2826;51.354;9.588;2023-05-10T11:59:44;4.53;;;3.70;;
5608;SDS011;2826;51.354;9.588;2023-05-10T12:02:11;4.50;;;3.67;;
5608;SDS011;2826;51.354;9.588;2023-05-10T12:04:40;4.43;;;3.80;;
5608;SDS011;2826;51.354;9.588;2023-05-10T12:07:08;7.33;;;3.63;;
5608;SDS011;2826;51.354;9.588;2023-05-10T12:09:35;7.83;;;4.00;;
5608;SDS011;2826;51.354;9.588;2023-05-10T12:12:02;7.33;;;3.97;;
5608;SDS011;2826;51.354;9.588;2023-05-10T12:14:29;4.80;;;4.10;;
5608;SDS011;2826;51.354;9.588;2023-05-10T12:17:00;5.50;;;4.30;;
5608;SDS011;2826;51.354;9.588;2023-05-10T12:19:26;4.33;;;3.93;;
5608;SDS011;2826;51.354;9.588;2023-05-10T12:21:54;6.20;;;4.63;;
5608;SDS011;2826;51.354;9.588;2023-05-10T12:24:21;5.60;;;4.67;;
5608;SDS011;2826;51.354;9.588;2023-05-10T12:26:50;7.20;;;5.07;;
5608;SDS011;2826;51.354;9.588;2023-05-10T12:29:17;4.70;;;4.30;;
5608;SDS011;2826;51.354;9.588;2023-05-10T12:31:53;5.80;;;4.37;;
5608;SDS011;2826;51.354;9.588;2023-05-10T12:34:22;5.30;;;4.23;;
5608;SDS011;2826;51.354;9.588;2023-05-10T12:36:50;5.60;;;4.10;;
5608;SDS011;2826;51.354;9.588;2023-05-10T12:39:19;5.37;;;4.47;;
5608;SDS011;2826;51.354;9.588;2023-05-10T12:41:45;5.13;;;4.37;;
5608;SDS011;2826;51.354;9.588;2023-05-10T12:44:12;7.97;;;4.67;;
5608;SDS011;2826;51.354;9.588;2023-05-10T12:46:39;6.07;;;4.60;;
5608;SDS011;2826;51.354;9.588;2023-05-10T12:49:05;8.47;;;4.70;;
5608;SDS011;2826;51.354;9.588;2023-05-10T12:51:32;6.27;;;4.50;;
5608;SDS011;2826;51.354;9.588;2023-05-10T12:53:59;5.37;;;4.50;;
5608;SDS011;2826;51.354;9.588;2023-05-10T12:56:27;7.73;;;3.30;;
5608;SDS011;2826;51.354;9.588;2023-05-10T12:58:53;8.00;;;3.63;;
5608;SDS011;2826;51.354;9.588;2023-05-10T13:01:20;6.80;;;3.90;;
5608;SDS011;2826;51.354;9.588;2023-05-10T13:03:47;12.13;;;4.10;;
5608;SDS011;2826;51.354;9.588;2023-05-10T13:06:13;5.27;;;3.73;;
5608;SDS011;2826;51.354;9.588;2023-05-10T13:08:40;9.23;;;4.87;;
5608;SDS011;2826;51.354;9.588;2023-05-10T13:11:06;9.27;;;3.90;;
5608;SDS011;2826;51.354;9.588;2023-05-10T13:13:34;11.13;;;3.47;;
5608;SDS011;2826;51.354;9.588;2023-05-10T13:16:01;16.97;;;4.00;;
5608;SDS011;2826;51.354;9.588;2023-05-10T13:18:28;6.80;;;3.27;;
5608;SDS011;2826;51.354;9.588;2023-05-10T13:20:54;12.43;;;4.20;;
5608;SDS011;2826;51.354;9.588;2023-05-10T13:23:21;8.77;;;4.00;;
5608;SDS011;2826;51.354;9.588;2023-05-10T13:25:48;22.63;;;4.93;;
5608;SDS011;2826;51.354;9.588;2023-05-10T13:28:15;9.40;;;4.10;;
5608;SDS011;2826;51.354;9.588;2023-05-10T13:30:43;7.60;;;4.03;;
5608;SDS011;2826;51.354;9.588;2023-05-10T13:33:09;9.47;;;4.27;;
5608;SDS011;2826;51.354;9.588;2023-05-10T13:35:37;7.47;;;4.10;;
5608;SDS011;2826;51.354;9.588;2023-05-10T13:38:03;6.73;;;3.80;;
5608;SDS011;2826;51.354;9.588;2023-05-10T13:40:32;6.30;;;3.67;;
5608;SDS011;2826;51.354;9.588;2023-05-10T13:42:59;8.33;;;3.70;;
5608;SDS011;2826;51.354;9.588;2023-05-10T13:45:26;5.27;;;3.30;;
5608;SDS011;2826;51.354;9.588;2023-05-10T13:47:54;7.17;;;3.90;;
5608;SDS011;2826;51.354;9.588;2023-05-10T13:50:20;4.23;;;3.37;;
5608;SDS011;2826;51.354;9.588;2023-05-10T13:52:47;6.97;;;3.93;;
5608;SDS011;2826;51.354;9.588;2023-05-10T13:55:13;7.60;;;3.80;;
5608;SDS011;2826;51.354;9.588;2023-05-10T13:57:40;6.13;;;4.23;;
5608;SDS011;2826;51.354;9.588;2023-05-10T14:00:07;6.90;;;3.80;;
5608;SDS011;2826;51.354;9.588;2023-05-10T14:02:34;3.97;;;3.10;;
5608;SDS011;2826;51.354;9.588;2023-05-10T14:05:03;6.47;;;3.37;;
5608;SDS011;2826;51.354;9.588;2023-05-10T14:07:31;5.43;;;3.93;;
5608;SDS011;2826;51.354;9.588;2023-05-10T14:09:57;4.83;;;3.57;;
5608;SDS011;2826;51.354;9.588;2023-05-10T14:12:24;3.77;;;3.17;;
5608;SDS011;2826;51.354;9.588;2023-05-10T14:14:50;3.70;;;3.20;;
5608;SDS011;2826;51.354;9.588;2023-05-10T14:17:17;4.60;;;3.33;;
5608;SDS011;2826;51.354;9.588;2023-05-10T14:19:44;5.33;;;2.97;;
5608;SDS011;2826;51.354;9.588;2023-05-10T14:22:12;4.37;;;3.20;;
5608;SDS011;2826;51.354;9.588;2023-05-10T14:24:39;3.50;;;2.90;;
5608;SDS011;2826;51.354;9.588;2023-05-10T14:27:06;4.57;;;3.10;;
5608;SDS011;2826;51.354;9.588;2023-05-10T14:29:32;4.10;;;3.10;;
5608;SDS011;2826;51.354;9.588;2023-05-10T14:31:59;4.07;;;2.80;;
5608;SDS011;2826;51.354;9.588;2023-05-10T14:34:25;3.83;;;3.00;;
5608;SDS011;2826;51.354;9.588;2023-05-10T14:36:52;3.47;;;2.53;;
5608;SDS011;2826;51.354;9.588;2023-05-10T14:39:20;3.00;;;2.60;;
5608;SDS011;2826;51.354;9.588;2023-05-10T14:41:47;4.80;;;3.20;;
5608;SDS011;2826;51.354;9.588;2023-05-10T14:44:14;4.13;;;3.10;;
5608;SDS011;2826;51.354;9.588;2023-05-10T14:46:41;5.57;;;3.50;;
5608;SDS011;2826;51.354;9.588;2023-05-10T14:49:07;8.97;;;3.93;;
5608;SDS011;2826;51.354;9.588;2023-05-10T14:51:34;6.20;;;3.90;;
5608;SDS011;2826;51.354;9.588;2023-05-10T14:54:02;8.80;;;3.47;;
5608;SDS011;2826;51.354;9.588;2023-05-10T14:56:29;4.07;;;2.93;;
5608;SDS011;2826;51.354;9.588;2023-05-10T14:58:56;4.73;;;3.10;;
5608;SDS011;2826;51.354;9.588;2023-05-10T15:01:23;4.67;;;2.60;;
5608;SDS011;2826;51.354;9.588;2023-05-10T15:03:49;3.93;;;2.00;;
5608;SDS011;2826;51.354;9.588;2023-05-10T15:06:16;3.57;;;2.13;;
5608;SDS011;2826;51.354;9.588;2023-05-10T15:08:43;3.90;;;2.40;;
5608;SDS011;2826;51.354;9.588;2023-05-10T15:11:10;2.90;;;2.43;;
5608;SDS011;2826;51.354;9.588;2023-05-10T15:13:38;2.83;;;2.37;;
5608;SDS011;2826;51.354;9.588;2023-05-10T15:16:05;6.38;;;2.95;;
5608;SDS011;2826;51.354;9.588;2023-05-10T15:18:32;5.30;;;3.33;;
5608;SDS011;2826;51.354;9.588;2023-05-10T15:20:58;7.17;;;4.00;;
5608;SDS011;2826;51.354;9.588;2023-05-10T15:23:25;3.43;;;2.77;;
5608;SDS011;2826;51.354;9.588;2023-05-10T15:25:52;4.47;;;3.40;;